GENERAL EDWARD LAWRENCE LOGAN INTL

KBOS (BOS)
Boston, Massachusetts
Towered

Vatsim Metar:
KBOS 291854Z 20017KT 10SM BKN070 OVC140 24/13 A2991 RMK AO2 RAB10E22 SLP127 P0000 T02440133

No ATC Online

Traffic

Inbound:
Ident
Type
Name
ETA
Phase
JBU1373
A321
Wayne Curtis MYNN
19:18 Z
Descent
JBU256
A320
Luca LSZH
19:59 Z
Cruse
DAL3722
A20N
Damien Fairman KHPN
20:11 Z
Descent
JBU291
A321
Ian Boyle EGGP
20:20 Z
Cruse
UAL257
B738
Hunter Amato 3N6
21:24 Z
Cruse
DAL1776
B78X
Justin Frank KLAX
21:52 Z
Cruse
BAW215
A359
Jake V EGKK
22:22 Z
Cruse
UAL1015
B77W
Sam B KDCA
Unknown

Outbound:
Ident
Type
Name
Destination
Phase